Landes Station, West Virginia
Current Conditions -  °F | °C
As of 6:15 PM on Thursday 27 Nov 2014 (Local Time) from KW99 Reporting Station
Overcast Overcast  
Wind Chill:   Ceiling: 4000
Heat Index:   Visibility: 10mi
Dew Point: -4°   Wind: 0mph
Humidity: 70%   Direction: NA
Pressure: 30.15"   Gusts: NA
Location:  38.9337°N, 79.1435°W
Report Text: KW99 272315Z AUTO 00000KT 10SM BKN040 BKN046 OVC070 01/M03 A3015 RMK AO2 T00141035
Loading
Personal Weather Stations






























Interactive Weather Map New forecast layout! Learn more

10-Day Weather Forecast

Advertisements
Track Severe Weather on mobile